Nomadic Bergen — 2BYA3 — position and weather

sailwx.info

Track history (hours):
 
Tides and Currents Weather Stations Pressure Air Temp Water Temp Dewpoint Dewpoint Depression Visibility Wind Speed Wind Dir Waves Ship Positions

Nomadic Bergen

Last reported at 2018-Feb-22 13:41 UTC. Time now 2018-Feb-25 11:45 UTC.
Position N 55°48' E 016°53'.

Length 108 m; draft 4.2 m.

Type: Ship. MMSI: 235070364.

Date/timePositionNaut miles runAvg speedWind from/ knotsBaromVisibWave heightAir tempDewpointWater temp
2018-Feb-22 13:41N 55°48' E 016°53'2 9.5
2018-Feb-22 13:27N 55°47' E 016°50'4 9.4
2018-Feb-22 13:00N 55°46' E 016°43'4 8.6
2018-Feb-22 12:30N 55°44' E 016°35'5 9.5
2018-Feb-22 12:00N 55°43' E 016°27'510.4
2018-Feb-22 11:30N 55°42' E 016°18'510.5
2018-Feb-22 11:00N 55°40' E 016°10'510.4
2018-Feb-22 10:30N 55°38' E 016°01'510.2
2018-Feb-22 10:00N 55°37' E 015°52'510.0
2018-Feb-22 09:31N 55°36' E 015°44'510.1
2018-Feb-22 09:00N 55°34' E 015°35'510.6
2018-Feb-22 08:30N 55°32' E 015°26'510.7
2018-Feb-22 08:00N 55°31' E 015°17'510.5
2018-Feb-22 07:31N 55°29' E 015°08'510.4
2018-Feb-22 07:01N 55°28' E 014°60'510.3
2018-Feb-22 06:29N 55°26' E 014°50'510.2
2018-Feb-22 05:59N 55°25' E 014°42'4 9.6
2018-Feb-22 05:31N 55°22' E 014°36'510.0
2018-Feb-22 05:00N 55°18' E 014°30'510.2
2018-Feb-22 04:28N 55°14' E 014°25'710.1
2018-Feb-22 03:47N 55°08' E 014°16'410.0
2018-Feb-22 03:24N 55°05' E 014°12'410.2
2018-Feb-22 02:59N 55°02' E 014°08'910.3
2018-Feb-22 02:05N 54°59' E 013°53'510.6
2018-Feb-22 01:36N 54°57' E 013°45'3711.0
2018-Feb-21 22:15N 54°45' E 012°44'311.1
2018-Feb-21 22:00N 54°43' E 012°40'1411.1
2018-Feb-21 20:46N 54°36' E 012°20'310.5
2018-Feb-21 20:31N 54°33' E 012°18'510.9
2018-Feb-21 20:00N 54°28' E 012°15'510.5
2018-Feb-21 19:31N 54°25' E 012°08'611.4
2018-Feb-21 19:00N 54°25' E 011°59'611.3
2018-Feb-21 18:30N 54°25' E 011°49'510.9
2018-Feb-21 18:00N 54°27' E 011°40'511.0
2018-Feb-21 17:30N 54°29' E 011°31'611.0
2018-Feb-21 17:01N 54°32' E 011°23'510.6
2018-Feb-21 16:30N 54°34' E 011°14'510.1
2018-Feb-21 16:00N 54°35' E 011°06'510.7
2018-Feb-21 15:31N 54°35' E 010°57'611.3
2018-Feb-21 15:01N 54°34' E 010°47'611.3
2018-Feb-21 14:30N 54°33' E 010°37'511.0
2018-Feb-21 14:01N 54°32' E 010°28'610.7
2018-Feb-21 13:29N 54°30' E 010°19'15 2.9
2018-Feb-21 08:30N 54°21' E 009°60'2 3.1
2018-Feb-21 07:54N 54°20' E 009°56'3 6.6
2018-Feb-21 07:30N 54°22' E 009°52'4 7.7
2018-Feb-21 07:00N 54°21' E 009°46'4 7.9
2018-Feb-21 06:31N 54°18' E 009°42'4 7.5
2018-Feb-21 06:00N 54°15' E 009°37'4 7.2
2018-Feb-21 05:31N 54°12' E 009°34'4 8.3
2018-Feb-21 05:01N 54°11' E 009°27'4 8.5
2018-Feb-21 04:31N 54°09' E 009°21'4 8.2
2018-Feb-21 04:01N 54°05' E 009°19'4 7.0
2018-Feb-21 03:30N 54°01' E 009°18'4 8.1
2018-Feb-21 03:01N 53°58' E 009°15'4 8.2
2018-Feb-21 02:30N 53°54' E 009°10'1 2.6
2018-Feb-21 02:01N 53°54' E 009°09'0 0.6
2018-Feb-21 01:30N 53°53' E 009°08'1 2.3
2018-Feb-21 01:00N 53°53' E 009°06'4 8.0
2018-Feb-21 00:31N 53°51' E 009°00'612.3
2018-Feb-21 00:00N 53°50' E 008°50'510.4
2018-Feb-20 23:30N 53°53' E 008°42'611.5
2018-Feb-20 23:00N 53°57' E 008°36'108 9.1
2018-Feb-20 11:11N 53°36' E 005°38'2 9.5
2018-Feb-20 11:00N 53°35' E 005°35'4 8.9
2018-Feb-20 10:30N 53°34' E 005°28'5 8.5
2018-Feb-20 09:54N 53°32' E 005°20'4 9.2
2018-Feb-20 09:29N 53°31' E 005°14'5 9.4
2018-Feb-20 09:00N 53°29' E 005°07'17 9.3
2018-Feb-20 07:10N 53°22' E 004°41'211.6
2018-Feb-20 07:00N 53°20' E 004°39'712.6
2018-Feb-20 06:28N 53°14' E 004°35'1812.4
2018-Feb-20 05:02N 52°59' E 004°20'311.4
2018-Feb-20 04:45N 52°56' E 004°18'311.4
2018-Feb-20 04:30N 52°54' E 004°15'611.1
2018-Feb-20 04:00N 52°49' E 004°10'510.4
2018-Feb-20 03:30N 52°45' E 004°06'510.0
2018-Feb-20 03:00N 52°41' E 004°00'6 9.9
2018-Feb-20 02:21N 52°36' E 003°53'9 9.8
2018-Feb-20 01:24N 52°29' E 003°43'4 9.5
2018-Feb-20 01:01N 52°26' E 003°39'5 9.4
2018-Feb-20 00:30N 52°23' E 003°33'5 8.9
2018-Feb-19 23:59N 52°19' E 003°31'5 9.4
2018-Feb-19 23:30N 52°14' E 003°31'5 9.1
2018-Feb-19 22:57N 52°09' E 003°31'4 8.7
2018-Feb-19 22:30N 52°07' E 003°36'5 9.8
2018-Feb-19 22:00N 52°04' E 003°43'510.4
2018-Feb-19 21:31N 52°03' E 003°51'5 9.5
2018-Feb-19 21:01N 52°01' E 003°59'713.1
2018-Feb-19 20:30N 51°58' E 004°08'713.1
2018-Feb-19 20:00N 51°54' E 004°17'510.9
2018-Feb-19 19:30N 51°54' E 004°25'2 3.3
2018-Feb-19 18:58N 51°54' E 004°28'0 0.0
2018-Feb-19 18:28N 51°54' E 004°28'0 0.0
2018-Feb-19 17:58N 51°54' E 004°28'0 0.0
2018-Feb-19 17:28N 51°54' E 004°28'0 0.0
2018-Feb-19 16:58N 51°54' E 004°28'0 0.0
2018-Feb-19 16:28N 51°54' E 004°28'0 0.0
2018-Feb-19 15:58N 51°54' E 004°28'0 0.0
2018-Feb-19 15:28N 51°54' E 004°28'0 0.0
2018-Feb-19 14:58N 51°54' E 004°28'0 0.0
2018-Feb-19 14:28N 51°54' E 004°28'0 0.0
2018-Feb-19 13:58N 51°54' E 004°28'0 0.0
2018-Feb-19 13:28N 51°54' E 004°28'0 0.0
2018-Feb-19 12:58N 51°54' E 004°28'0 0.0
2018-Feb-19 12:28N 51°54' E 004°28'0 0.0
2018-Feb-19 11:58N 51°54' E 004°28'0 0.0
2018-Feb-19 11:28N 51°54' E 004°28'0 0.0
2018-Feb-19 10:58N 51°54' E 004°28'0 0.0
2018-Feb-19 10:28N 51°54' E 004°28'0 0.0
2018-Feb-19 09:58N 51°54' E 004°28'0 0.0
2018-Feb-19 09:28N 51°54' E 004°28'0 0.0
2018-Feb-19 08:58N 51°54' E 004°28'0 0.0
2018-Feb-19 08:28N 51°54' E 004°28'0 0.0
2018-Feb-19 07:58N 51°54' E 004°28'0 0.0
2018-Feb-19 07:28N 51°54' E 004°28'0 0.0
2018-Feb-19 06:58N 51°54' E 004°28'0 0.0
2018-Feb-19 06:28N 51°54' E 004°28'0 0.0
2018-Feb-19 05:58N 51°54' E 004°28'0 0.0
2018-Feb-19 05:28N 51°54' E 004°28'0 0.0
2018-Feb-19 04:58N 51°54' E 004°28'0 0.0
2018-Feb-19 04:28N 51°54' E 004°28'0 0.0
2018-Feb-19 03:58N 51°54' E 004°28'0 0.0
2018-Feb-19 03:28N 51°54' E 004°28'0 0.0
2018-Feb-19 02:58N 51°54' E 004°28'0 0.0
2018-Feb-19 02:28N 51°54' E 004°28'0 0.0
2018-Feb-19 01:58N 51°54' E 004°28'0 0.0
2018-Feb-19 01:28N 51°54' E 004°28'0 0.0
2018-Feb-19 00:58N 51°54' E 004°28'0 0.0
2018-Feb-19 00:28N 51°54' E 004°28'0 0.0
2018-Feb-18 23:58N 51°54' E 004°28'0 0.0
2018-Feb-18 23:28N 51°54' E 004°28'0 0.0
2018-Feb-18 22:58N 51°54' E 004°28'0 0.0
2018-Feb-18 22:28N 51°54' E 004°28'0 0.0
2018-Feb-18 21:58N 51°54' E 004°28'0 0.0
2018-Feb-18 21:28N 51°54' E 004°28'0 0.0
2018-Feb-18 20:58N 51°54' E 004°28'0 0.0
2018-Feb-18 20:25N 51°54' E 004°28'0 0.0
2018-Feb-18 19:58N 51°54' E 004°28'0 0.0
2018-Feb-18 19:28N 51°54' E 004°28'0 0.0
2018-Feb-18 18:58N 51°54' E 004°28'0 0.0
2018-Feb-18 18:28N 51°54' E 004°28'0 0.0
2018-Feb-18 17:58N 51°54' E 004°28'0 0.0
2018-Feb-18 17:28N 51°54' E 004°28'0 0.0
2018-Feb-18 16:58N 51°54' E 004°28'0 0.0
2018-Feb-18 16:28N 51°54' E 004°28'0 0.0
2018-Feb-18 15:58N 51°54' E 004°28'0 0.0
2018-Feb-18 15:28N 51°54' E 004°28'0 0.0
2018-Feb-18 14:58N 51°54' E 004°28'0 0.0
2018-Feb-18 14:28N 51°54' E 004°28'0 0.0
2018-Feb-18 13:58N 51°54' E 004°28'0 0.0
2018-Feb-18 13:25N 51°54' E 004°28'0 0.0
2018-Feb-18 12:58N 51°54' E 004°28'0 0.0
2018-Feb-18 12:28N 51°54' E 004°28'0 0.0
2018-Feb-18 11:58N 51°54' E 004°28'0 0.0
2018-Feb-18 11:28N 51°54' E 004°28'0 0.0
2018-Feb-18 10:58N 51°54' E 004°28'0 0.0
2018-Feb-18 10:28N 51°54' E 004°28'0 0.0
2018-Feb-18 09:58N 51°54' E 004°28'0 0.0
2018-Feb-18 09:28N 51°54' E 004°28'0 0.0
2018-Feb-18 08:58N 51°54' E 004°28'0 0.0
2018-Feb-18 08:28N 51°54' E 004°28'0 0.0
2018-Feb-18 07:58N 51°54' E 004°28'0 0.0
2018-Feb-18 07:28N 51°54' E 004°28'0 0.0
2018-Feb-18 06:58N 51°54' E 004°28'0 0.0
2018-Feb-18 06:28N 51°54' E 004°28'0 0.0
2018-Feb-18 05:58N 51°54' E 004°28'0 0.0
2018-Feb-18 05:28N 51°54' E 004°28'0 0.0
2018-Feb-18 04:58N 51°54' E 004°28'0 0.0
2018-Feb-18 04:28N 51°54' E 004°28'0 0.0
2018-Feb-18 03:58N 51°54' E 004°28'0 0.0
2018-Feb-18 03:28N 51°54' E 004°28'0 0.0
2018-Feb-18 02:58N 51°54' E 004°28'0 0.0
2018-Feb-18 02:28N 51°54' E 004°28'0 0.0
2018-Feb-18 01:58N 51°54' E 004°28'0 0.0
2018-Feb-18 01:28N 51°54' E 004°28'0 0.0
2018-Feb-18 00:58N 51°54' E 004°28'0 0.0
2018-Feb-18 00:25N 51°54' E 004°28'0 0.0
2018-Feb-17 23:58N 51°54' E 004°28'0 0.0
2018-Feb-17 23:28N 51°54' E 004°28'0 0.0
2018-Feb-17 22:58N 51°54' E 004°28'0 0.0
2018-Feb-17 22:28N 51°54' E 004°28'0 0.0
2018-Feb-17 21:58N 51°54' E 004°28'0 0.0
2018-Feb-17 21:28N 51°54' E 004°28'0 0.0
2018-Feb-17 20:58N 51°54' E 004°28'0 0.0
2018-Feb-17 20:28N 51°54' E 004°28'0 0.0
2018-Feb-17 19:58N 51°54' E 004°28'0 0.0
2018-Feb-17 19:28N 51°54' E 004°28'0 0.0
2018-Feb-17 18:58N 51°54' E 004°28'0 0.0
2018-Feb-17 18:28N 51°54' E 004°28'0 0.0
2018-Feb-17 17:58N 51°54' E 004°28'0 0.0
2018-Feb-17 17:28N 51°54' E 004°28'0 0.0
2018-Feb-17 16:58N 51°54' E 004°28'0 0.0
2018-Feb-17 16:28N 51°54' E 004°28'0 0.0
2018-Feb-17 15:58N 51°54' E 004°28'0 0.0
2018-Feb-17 15:25N 51°54' E 004°28'0 0.0
2018-Feb-17 14:58N 51°54' E 004°28'0 0.0
2018-Feb-17 14:28N 51°54' E 004°28'0 0.0
2018-Feb-17 13:58N 51°54' E 004°28'0 0.0
2018-Feb-17 13:28N 51°54' E 004°28'0 0.0
2018-Feb-17 12:58N 51°54' E 004°28'0 0.0
2018-Feb-17 12:28N 51°54' E 004°28'0 0.0
2018-Feb-17 11:58N 51°54' E 004°28'0 0.0
2018-Feb-17 11:28N 51°54' E 004°28'0 0.0
2018-Feb-17 10:58N 51°54' E 004°28'0 0.0
2018-Feb-17 10:28N 51°54' E 004°28'0 0.0
2018-Feb-17 09:58N 51°54' E 004°28'0 0.0
2018-Feb-17 09:28N 51°54' E 004°28'0 0.0
2018-Feb-17 08:58N 51°54' E 004°28'0 0.0
2018-Feb-17 08:28N 51°54' E 004°28'0 0.0
2018-Feb-17 07:58N 51°54' E 004°28'0 0.0
2018-Feb-17 07:28N 51°54' E 004°28'0 0.0
2018-Feb-17 06:58N 51°54' E 004°28'0 0.0
2018-Feb-17 06:28N 51°54' E 004°28'0 0.0
2018-Feb-17 05:58N 51°54' E 004°28'0 0.0
2018-Feb-17 05:28N 51°54' E 004°28'0 0.0
2018-Feb-17 04:58N 51°54' E 004°28'0 0.0
2018-Feb-17 04:25N 51°54' E 004°28'0 0.0
2018-Feb-17 03:58N 51°54' E 004°28'0 0.0
2018-Feb-17 03:28N 51°54' E 004°28'0 0.0
2018-Feb-17 02:58N 51°54' E 004°28'0 0.0
2018-Feb-17 02:28N 51°54' E 004°28'0 0.0
2018-Feb-17 01:58N 51°54' E 004°28'0 0.0
2018-Feb-17 01:28N 51°54' E 004°28'0 0.0
2018-Feb-17 00:58N 51°54' E 004°28'0 0.0
2018-Feb-17 00:28N 51°54' E 004°28'0 0.0
2018-Feb-16 23:58N 51°54' E 004°28'0 0.0
2018-Feb-16 23:28N 51°54' E 004°28'0 0.0
2018-Feb-16 22:58N 51°54' E 004°28'0 0.0
2018-Feb-16 22:28N 51°54' E 004°28'0 0.0
2018-Feb-16 21:58N 51°54' E 004°28'0 0.0
2018-Feb-16 21:28N 51°54' E 004°28'0 0.0
2018-Feb-16 20:58N 51°54' E 004°28'0 0.0
2018-Feb-16 20:28N 51°54' E 004°28'0 0.0
2018-Feb-16 19:58N 51°54' E 004°28'0 0.0
2018-Feb-16 19:28N 51°54' E 004°28'0 0.0
2018-Feb-16 18:58N 51°54' E 004°28'0 0.0
2018-Feb-16 18:28N 51°54' E 004°28'0 0.0
2018-Feb-16 17:58N 51°54' E 004°28'0 0.0
2018-Feb-16 17:28N 51°54' E 004°28'0 0.0
2018-Feb-16 16:58N 51°54' E 004°28'0 0.0
2018-Feb-16 16:28N 51°54' E 004°28'0 0.0
2018-Feb-16 15:58N 51°54' E 004°28'0 0.0
2018-Feb-16 15:28N 51°54' E 004°28'0 0.0
2018-Feb-16 14:58N 51°54' E 004°28'0 0.0
2018-Feb-16 14:28N 51°54' E 004°28'0 0.0
2018-Feb-16 13:58N 51°54' E 004°28'0 0.0
2018-Feb-16 13:28N 51°54' E 004°28'0 0.0
2018-Feb-16 12:58N 51°54' E 004°28'0 0.0
2018-Feb-16 12:28N 51°54' E 004°28'0 0.0
2018-Feb-16 11:58N 51°54' E 004°28'0 0.0
2018-Feb-16 11:28N 51°54' E 004°28'0 0.0
2018-Feb-16 10:58N 51°54' E 004°28'0 0.0
2018-Feb-16 10:28N 51°54' E 004°28'0 0.0
2018-Feb-16 09:58N 51°54' E 004°28'0 0.0
2018-Feb-16 09:28N 51°54' E 004°28'0 0.0
2018-Feb-16 08:58N 51°54' E 004°28'0 0.0
2018-Feb-16 08:28N 51°54' E 004°28'0 0.0
2018-Feb-16 07:55N 51°54' E 004°28'0 0.0
2018-Feb-16 07:28N 51°54' E 004°28'0 0.0
2018-Feb-16 06:58N 51°54' E 004°28'0 0.0
2018-Feb-16 06:28N 51°54' E 004°28'0 0.0
2018-Feb-16 05:58N 51°54' E 004°28'0 0.0
2018-Feb-16 05:28N 51°54' E 004°28'0 0.0
2018-Feb-16 04:58N 51°54' E 004°28'0 0.0
2018-Feb-16 04:28N 51°54' E 004°28'0 0.0
2018-Feb-16 03:58N 51°54' E 004°28'0 0.0
2018-Feb-16 03:28N 51°54' E 004°28'0 0.0
2018-Feb-16 02:52N 51°54' E 004°28'0 0.0
2018-Feb-16 02:28N 51°54' E 004°28'0 0.0
2018-Feb-16 01:58N 51°54' E 004°28'0 0.0
2018-Feb-16 01:28N 51°54' E 004°28'0 0.0
2018-Feb-16 00:58N 51°54' E 004°28'0 0.0
2018-Feb-16 00:28N 51°54' E 004°28'0 0.0
2018-Feb-15 23:58N 51°54' E 004°28'0 0.0
2018-Feb-15 23:28N 51°54' E 004°28'0 0.0
2018-Feb-15 22:58N 51°54' E 004°28'0 0.0
2018-Feb-15 22:28N 51°54' E 004°28'0 0.0
2018-Feb-15 21:58N 51°54' E 004°28'0 0.0
2018-Feb-15 21:28N 51°54' E 004°28'0 0.0
2018-Feb-15 20:58N 51°54' E 004°28'0 0.0
2018-Feb-15 20:28N 51°54' E 004°28'0 0.0
2018-Feb-15 19:58N 51°54' E 004°28'0 0.0
2018-Feb-15 19:28N 51°54' E 004°28'0 0.0
2018-Feb-15 18:58N 51°54' E 004°28'0 0.0
2018-Feb-15 18:28N 51°54' E 004°28'0 0.0
2018-Feb-15 17:58N 51°54' E 004°28'0 0.0
2018-Feb-15 17:28N 51°54' E 004°28'0 0.0
2018-Feb-15 16:58N 51°54' E 004°28'0 0.0
2018-Feb-15 16:28N 51°54' E 004°28'0 0.0
2018-Feb-15 15:58N 51°54' E 004°28'0 0.0
2018-Feb-15 15:28N 51°54' E 004°28'0 0.0
2018-Feb-15 14:58N 51°54' E 004°28'0 0.0
2018-Feb-15 14:28N 51°54' E 004°28'0 0.0
2018-Feb-15 13:58N 51°54' E 004°28'0 0.0
2018-Feb-15 13:28N 51°54' E 004°28'0 0.0
2018-Feb-15 12:58N 51°54' E 004°28'0 0.0
2018-Feb-15 12:28N 51°54' E 004°28'0 0.0
2018-Feb-15 11:58N 51°54' E 004°28'0 0.0
2018-Feb-15 11:28N 51°54' E 004°28'0 0.0
2018-Feb-15 10:58N 51°54' E 004°28'0 0.0
2018-Feb-15 10:28N 51°54' E 004°28'0 0.0
2018-Feb-15 09:58N 51°54' E 004°28'0 0.0
2018-Feb-15 09:28N 51°54' E 004°28'0 0.0
2018-Feb-15 08:58N 51°54' E 004°28'0 0.0
2018-Feb-15 08:28N 51°54' E 004°28'0 0.0
2018-Feb-15 07:58N 51°54' E 004°28'0 0.0
2018-Feb-15 07:28N 51°54' E 004°28'0 0.0
2018-Feb-15 06:58N 51°54' E 004°28'0 0.0
2018-Feb-15 06:28N 51°54' E 004°28'0 0.0
2018-Feb-15 05:58N 51°54' E 004°28'0 0.0
2018-Feb-15 05:28N 51°54' E 004°28'0 0.0
2018-Feb-15 04:58N 51°54' E 004°28'0 0.0
2018-Feb-15 04:25N 51°54' E 004°28'0 0.0
2018-Feb-15 03:58N 51°54' E 004°28'0 0.0
2018-Feb-15 03:28N 51°54' E 004°28'0 0.0
2018-Feb-15 02:58N 51°54' E 004°28'0 0.0
2018-Feb-15 02:28N 51°54' E 004°28'0 0.0
2018-Feb-15 01:58N 51°54' E 004°28'0 0.0
2018-Feb-15 01:28N 51°54' E 004°28'0 0.0
2018-Feb-15 00:58N 51°54' E 004°28'0 0.0
2018-Feb-15 00:28N 51°54' E 004°28'0 0.0
2018-Feb-14 23:58N 51°54' E 004°28'0 0.0
2018-Feb-14 23:28N 51°54' E 004°28'0 0.0
2018-Feb-14 22:58N 51°54' E 004°28'0 0.0
2018-Feb-14 22:28N 51°54' E 004°28'0 0.0
2018-Feb-14 21:58N 51°54' E 004°28'0 0.0
2018-Feb-14 21:25N 51°54' E 004°28'0 0.0
2018-Feb-14 20:58N 51°54' E 004°28'0 0.0
2018-Feb-14 20:28N 51°54' E 004°28'0 0.0
2018-Feb-14 19:58N 51°54' E 004°28'0 0.0
2018-Feb-14 19:28N 51°54' E 004°28'0 0.0
2018-Feb-14 18:58N 51°54' E 004°28'0 0.0
2018-Feb-14 18:28N 51°54' E 004°28'0 0.0
2018-Feb-14 17:58N 51°54' E 004°28'0 0.0
2018-Feb-14 17:28N 51°54' E 004°28'0 0.0
2018-Feb-14 16:58N 51°54' E 004°28'0 0.0
2018-Feb-14 16:25N 51°54' E 004°28'0 0.0
2018-Feb-14 15:58N 51°54' E 004°28'0 0.0
2018-Feb-14 15:28N 51°54' E 004°28'0 0.0
2018-Feb-14 14:58N 51°54' E 004°28'0 0.0
2018-Feb-14 14:28N 51°54' E 004°28'0 0.0
2018-Feb-14 13:58N 51°54' E 004°28'0 0.0
2018-Feb-14 13:28N 51°54' E 004°28'0 0.0
2018-Feb-14 12:58N 51°54' E 004°28'0 0.0
2018-Feb-14 12:28N 51°54' E 004°28'0 0.0
2018-Feb-14 11:58N 51°54' E 004°28'0 0.0
2018-Feb-14 11:28N 51°54' E 004°28'0 0.0
2018-Feb-14 10:58N 51°54' E 004°28'0 0.0
2018-Feb-14 10:25N 51°54' E 004°28'0 0.0
2018-Feb-14 09:58N 51°54' E 004°28'0 0.0
2018-Feb-14 09:28N 51°54' E 004°28'0 0.0
2018-Feb-14 08:58N 51°54' E 004°28'0 0.0
2018-Feb-14 08:28N 51°54' E 004°28'0 0.0
2018-Feb-14 07:58N 51°54' E 004°28'0 0.0
2018-Feb-14 07:28N 51°54' E 004°28'0 0.0
2018-Feb-14 06:58N 51°54' E 004°28'0 0.0
2018-Feb-14 06:28N 51°54' E 004°28'0 0.0
2018-Feb-14 05:58N 51°54' E 004°28'0 0.0
2018-Feb-14 05:28N 51°54' E 004°28'0 0.0
2018-Feb-14 04:58N 51°54' E 004°28'0 0.0
2018-Feb-14 04:28N 51°54' E 004°28'0 0.0
2018-Feb-14 03:58N 51°54' E 004°28'0 0.0
2018-Feb-14 03:28N 51°54' E 004°28'0 0.0
2018-Feb-14 02:55N 51°54' E 004°28'0 0.0
2018-Feb-14 02:28N 51°54' E 004°28'0 0.0
2018-Feb-14 01:58N 51°54' E 004°28'0 0.0
2018-Feb-14 01:28N 51°54' E 004°28'0 0.0
2018-Feb-14 00:58N 51°54' E 004°28'0 0.0
2018-Feb-14 00:28N 51°54' E 004°28'0 0.0
2018-Feb-13 23:58N 51°54' E 004°28'0 0.0
2018-Feb-13 23:28N 51°54' E 004°28'0 0.0
2018-Feb-13 22:58N 51°54' E 004°28'0 0.0
2018-Feb-13 22:28N 51°54' E 004°28'0 0.0
2018-Feb-13 21:58N 51°54' E 004°28'0 0.0
2018-Feb-13 21:28N 51°54' E 004°28'0 0.0
2018-Feb-13 20:58N 51°54' E 004°28'0 0.0
2018-Feb-13 20:28N 51°54' E 004°28'0 0.0
2018-Feb-13 19:58N 51°54' E 004°28'0 0.0
2018-Feb-13 19:28N 51°54' E 004°28'0 0.0
2018-Feb-13 18:58N 51°54' E 004°28'0 0.0
2018-Feb-13 18:28N 51°54' E 004°28'0 0.0
2018-Feb-13 17:58N 51°54' E 004°28'0 0.0
2018-Feb-13 17:28N 51°54' E 004°28'0 0.0
2018-Feb-13 16:58N 51°54' E 004°28'0 0.0
2018-Feb-13 16:28N 51°54' E 004°28'0 0.0
2018-Feb-13 15:58N 51°54' E 004°28'0 0.0
2018-Feb-13 15:28N 51°54' E 004°28'0 0.0
2018-Feb-13 14:58N 51°54' E 004°28'0 0.0
2018-Feb-13 14:28N 51°54' E 004°28'0 0.0
2018-Feb-13 13:58N 51°54' E 004°28'0 0.0
2018-Feb-13 13:28N 51°54' E 004°28'0 0.0
2018-Feb-13 12:58N 51°54' E 004°28'0 0.0
2018-Feb-13 12:28N 51°54' E 004°28'0 0.0
2018-Feb-13 11:58N 51°54' E 004°28'0 0.0
2018-Feb-13 11:28N 51°54' E 004°28'0 0.0
2018-Feb-13 10:58N 51°54' E 004°28'0 0.0
2018-Feb-13 10:28N 51°54' E 004°28'0 0.0
2018-Feb-13 09:58N 51°54' E 004°28'0 0.0
2018-Feb-13 09:28N 51°54' E 004°28'0 0.0
2018-Feb-13 08:58N 51°54' E 004°28'0 0.0
2018-Feb-13 08:28N 51°54' E 004°28'0 0.0
2018-Feb-13 07:58N 51°54' E 004°28'0 0.0
2018-Feb-13 07:28N 51°54' E 004°28'0 0.0
2018-Feb-13 06:58N 51°54' E 004°28'0 0.0
2018-Feb-13 06:28N 51°54' E 004°28'0 0.0
2018-Feb-13 05:58N 51°54' E 004°28'0 0.0
2018-Feb-13 05:28N 51°54' E 004°28'0 0.0
2018-Feb-13 04:58N 51°54' E 004°28'0 0.0
2018-Feb-13 04:28N 51°54' E 004°28'0 0.0
2018-Feb-13 03:58N 51°54' E 004°28'0 0.0
2018-Feb-13 03:28N 51°54' E 004°28'0 0.0
2018-Feb-13 02:58N 51°54' E 004°28'0 0.0
2018-Feb-13 02:28N 51°54' E 004°28'0 0.0
2018-Feb-13 01:58N 51°54' E 004°28'0 0.0
2018-Feb-13 01:28N 51°54' E 004°28'0 0.0
2018-Feb-13 00:58N 51°54' E 004°28'0 0.0
2018-Feb-13 00:28N 51°54' E 004°28'0 0.0
2018-Feb-12 23:58N 51°54' E 004°28'0 0.0
2018-Feb-12 23:28N 51°54' E 004°28'0 0.0
2018-Feb-12 22:58N 51°54' E 004°28'0 0.0
2018-Feb-12 22:28N 51°54' E 004°28'0 0.0
2018-Feb-12 22:00N 51°54' E 004°28'0 0.0
2018-Feb-12 21:30N 51°54' E 004°28'0 0.0
2018-Feb-12 21:01N 51°54' E 004°28'0 0.0
2018-Feb-12 20:31N 51°54' E 004°28'0 0.0
2018-Feb-12 20:00N 51°54' E 004°28'0 0.0
2018-Feb-12 19:30N 51°54' E 004°28'0 0.0
2018-Feb-12 19:00N 51°54' E 004°28'0 0.0
2018-Feb-12 18:30N 51°54' E 004°28'0 0.1
2018-Feb-12 18:00N 51°54' E 004°28'1 1.9
2018-Feb-12 17:30N 51°54' E 004°27'0 0.7
2018-Feb-12 16:59N 51°54' E 004°27'0 0.0
2018-Feb-12 16:26N 51°54' E 004°27'0 0.0
2018-Feb-12 15:59N 51°54' E 004°27'0 0.0
2018-Feb-12 15:29N 51°54' E 004°27'0 0.0
2018-Feb-12 14:59N 51°54' E 004°27'0 0.0
2018-Feb-12 14:29N 51°54' E 004°27'0 0.0
2018-Feb-12 13:59N 51°54' E 004°27'  
Track history (hours):
 
Tides and Currents Weather Stations Pressure Air Temp Water Temp Dewpoint Dewpoint Depression Visibility Wind Speed Wind Dir Waves Ship Positions

Nomadic Bergen

Last reported at 2018-Feb-22 13:41 UTC. Time now 2018-Feb-25 11:45 UTC.
Position N 55°48' E 016°53'.

Length 108 m; draft 4.2 m.

Type: Ship. MMSI: 235070364.

Date/timePositionNaut miles runAvg speedWind from/ knotsBaromVisibWave heightAir tempDewpointWater temp
2018-Feb-22 13:41N 55°48' E 016°53'2 9.5
2018-Feb-22 13:27N 55°47' E 016°50'4 9.4
2018-Feb-22 13:00N 55°46' E 016°43'4 8.6
2018-Feb-22 12:30N 55°44' E 016°35'5 9.5
2018-Feb-22 12:00N 55°43' E 016°27'510.4
2018-Feb-22 11:30N 55°42' E 016°18'510.5
2018-Feb-22 11:00N 55°40' E 016°10'510.4
2018-Feb-22 10:30N 55°38' E 016°01'510.2
2018-Feb-22 10:00N 55°37' E 015°52'510.0
2018-Feb-22 09:31N 55°36' E 015°44'510.1
2018-Feb-22 09:00N 55°34' E 015°35'510.6
2018-Feb-22 08:30N 55°32' E 015°26'510.7
2018-Feb-22 08:00N 55°31' E 015°17'510.5
2018-Feb-22 07:31N 55°29' E 015°08'510.4
2018-Feb-22 07:01N 55°28' E 014°60'510.3
2018-Feb-22 06:29N 55°26' E 014°50'510.2
2018-Feb-22 05:59N 55°25' E 014°42'4 9.6
2018-Feb-22 05:31N 55°22' E 014°36'510.0
2018-Feb-22 05:00N 55°18' E 014°30'510.2
2018-Feb-22 04:28N 55°14' E 014°25'710.1
2018-Feb-22 03:47N 55°08' E 014°16'410.0
2018-Feb-22 03:24N 55°05' E 014°12'410.2
2018-Feb-22 02:59N 55°02' E 014°08'910.3
2018-Feb-22 02:05N 54°59' E 013°53'510.6
2018-Feb-22 01:36N 54°57' E 013°45'3711.0
2018-Feb-21 22:15N 54°45' E 012°44'311.1
2018-Feb-21 22:00N 54°43' E 012°40'1411.1
2018-Feb-21 20:46N 54°36' E 012°20'310.5
2018-Feb-21 20:31N 54°33' E 012°18'510.9
2018-Feb-21 20:00N 54°28' E 012°15'510.5
2018-Feb-21 19:31N 54°25' E 012°08'611.4
2018-Feb-21 19:00N 54°25' E 011°59'611.3
2018-Feb-21 18:30N 54°25' E 011°49'510.9
2018-Feb-21 18:00N 54°27' E 011°40'511.0
2018-Feb-21 17:30N 54°29' E 011°31'611.0
2018-Feb-21 17:01N 54°32' E 011°23'510.6
2018-Feb-21 16:30N 54°34' E 011°14'510.1
2018-Feb-21 16:00N 54°35' E 011°06'510.7
2018-Feb-21 15:31N 54°35' E 010°57'611.3
2018-Feb-21 15:01N 54°34' E 010°47'611.3
2018-Feb-21 14:30N 54°33' E 010°37'511.0
2018-Feb-21 14:01N 54°32' E 010°28'610.7
2018-Feb-21 13:29N 54°30' E 010°19'15 2.9
2018-Feb-21 08:30N 54°21' E 009°60'2 3.1
2018-Feb-21 07:54N 54°20' E 009°56'3 6.6
2018-Feb-21 07:30N 54°22' E 009°52'4 7.7
2018-Feb-21 07:00N 54°21' E 009°46'4 7.9
2018-Feb-21 06:31N 54°18' E 009°42'4 7.5
2018-Feb-21 06:00N 54°15' E 009°37'4 7.2
2018-Feb-21 05:31N 54°12' E 009°34'4 8.3
2018-Feb-21 05:01N 54°11' E 009°27'4 8.5
2018-Feb-21 04:31N 54°09' E 009°21'4 8.2
2018-Feb-21 04:01N 54°05' E 009°19'4 7.0
2018-Feb-21 03:30N 54°01' E 009°18'4 8.1
2018-Feb-21 03:01N 53°58' E 009°15'4 8.2
2018-Feb-21 02:30N 53°54' E 009°10'1 2.6
2018-Feb-21 02:01N 53°54' E 009°09'0 0.6
2018-Feb-21 01:30N 53°53' E 009°08'1 2.3
2018-Feb-21 01:00N 53°53' E 009°06'4 8.0
2018-Feb-21 00:31N 53°51' E 009°00'612.3
2018-Feb-21 00:00N 53°50' E 008°50'510.4
2018-Feb-20 23:30N 53°53' E 008°42'611.5
2018-Feb-20 23:00N 53°57' E 008°36'108 9.1
2018-Feb-20 11:11N 53°36' E 005°38'2 9.5
2018-Feb-20 11:00N 53°35' E 005°35'4 8.9
2018-Feb-20 10:30N 53°34' E 005°28'5 8.5
2018-Feb-20 09:54N 53°32' E 005°20'4 9.2
2018-Feb-20 09:29N 53°31' E 005°14'5 9.4
2018-Feb-20 09:00N 53°29' E 005°07'17 9.3
2018-Feb-20 07:10N 53°22' E 004°41'211.6
2018-Feb-20 07:00N 53°20' E 004°39'712.6
2018-Feb-20 06:28N 53°14' E 004°35'1812.4
2018-Feb-20 05:02N 52°59' E 004°20'311.4
2018-Feb-20 04:45N 52°56' E 004°18'311.4
2018-Feb-20 04:30N 52°54' E 004°15'611.1
2018-Feb-20 04:00N 52°49' E 004°10'510.4
2018-Feb-20 03:30N 52°45' E 004°06'510.0
2018-Feb-20 03:00N 52°41' E 004°00'6 9.9
2018-Feb-20 02:21N 52°36' E 003°53'9 9.8
2018-Feb-20 01:24N 52°29' E 003°43'4 9.5
2018-Feb-20 01:01N 52°26' E 003°39'5 9.4
2018-Feb-20 00:30N 52°23' E 003°33'5 8.9
2018-Feb-19 23:59N 52°19' E 003°31'5 9.4
2018-Feb-19 23:30N 52°14' E 003°31'5 9.1
2018-Feb-19 22:57N 52°09' E 003°31'4 8.7
2018-Feb-19 22:30N 52°07' E 003°36'5 9.8
2018-Feb-19 22:00N 52°04' E 003°43'510.4
2018-Feb-19 21:31N 52°03' E 003°51'5 9.5
2018-Feb-19 21:01N 52°01' E 003°59'713.1
2018-Feb-19 20:30N 51°58' E 004°08'713.1
2018-Feb-19 20:00N 51°54' E 004°17'510.9
2018-Feb-19 19:30N 51°54' E 004°25'2 3.3
2018-Feb-19 18:58N 51°54' E 004°28'0 0.0
2018-Feb-19 18:28N 51°54' E 004°28'0 0.0
2018-Feb-19 17:58N 51°54' E 004°28'0 0.0
2018-Feb-19 17:28N 51°54' E 004°28'0 0.0
2018-Feb-19 16:58N 51°54' E 004°28'0 0.0
2018-Feb-19 16:28N 51°54' E 004°28'0 0.0
2018-Feb-19 15:58N 51°54' E 004°28'0 0.0
2018-Feb-19 15:28N 51°54' E 004°28'0 0.0
2018-Feb-19 14:58N 51°54' E 004°28'0 0.0
2018-Feb-19 14:28N 51°54' E 004°28'0 0.0
2018-Feb-19 13:58N 51°54' E 004°28'0 0.0
2018-Feb-19 13:28N 51°54' E 004°28'0 0.0
2018-Feb-19 12:58N 51°54' E 004°28'0 0.0
2018-Feb-19 12:28N 51°54' E 004°28'0 0.0
2018-Feb-19 11:58N 51°54' E 004°28'0 0.0
2018-Feb-19 11:28N 51°54' E 004°28'0 0.0
2018-Feb-19 10:58N 51°54' E 004°28'0 0.0
2018-Feb-19 10:28N 51°54' E 004°28'0 0.0
2018-Feb-19 09:58N 51°54' E 004°28'0 0.0
2018-Feb-19 09:28N 51°54' E 004°28'0 0.0
2018-Feb-19 08:58N 51°54' E 004°28'0 0.0
2018-Feb-19 08:28N 51°54' E 004°28'0 0.0
2018-Feb-19 07:58N 51°54' E 004°28'0 0.0
2018-Feb-19 07:28N 51°54' E 004°28'0 0.0
2018-Feb-19 06:58N 51°54' E 004°28'0 0.0
2018-Feb-19 06:28N 51°54' E 004°28'0 0.0
2018-Feb-19 05:58N 51°54' E 004°28'0 0.0
2018-Feb-19 05:28N 51°54' E 004°28'0 0.0
2018-Feb-19 04:58N 51°54' E 004°28'0 0.0
2018-Feb-19 04:28N 51°54' E 004°28'0 0.0
2018-Feb-19 03:58N 51°54' E 004°28'0 0.0
2018-Feb-19 03:28N 51°54' E 004°28'0 0.0
2018-Feb-19 02:58N 51°54' E 004°28'0 0.0
2018-Feb-19 02:28N 51°54' E 004°28'0 0.0
2018-Feb-19 01:58N 51°54' E 004°28'0 0.0
2018-Feb-19 01:28N 51°54' E 004°28'0 0.0
2018-Feb-19 00:58N 51°54' E 004°28'0 0.0
2018-Feb-19 00:28N 51°54' E 004°28'0 0.0
2018-Feb-18 23:58N 51°54' E 004°28'0 0.0
2018-Feb-18 23:28N 51°54' E 004°28'0 0.0
2018-Feb-18 22:58N 51°54' E 004°28'0 0.0
2018-Feb-18 22:28N 51°54' E 004°28'0 0.0
2018-Feb-18 21:58N 51°54' E 004°28'0 0.0
2018-Feb-18 21:28N 51°54' E 004°28'0 0.0
2018-Feb-18 20:58N 51°54' E 004°28'0 0.0
2018-Feb-18 20:25N 51°54' E 004°28'0 0.0
2018-Feb-18 19:58N 51°54' E 004°28'0 0.0
2018-Feb-18 19:28N 51°54' E 004°28'0 0.0
2018-Feb-18 18:58N 51°54' E 004°28'0 0.0
2018-Feb-18 18:28N 51°54' E 004°28'0 0.0
2018-Feb-18 17:58N 51°54' E 004°28'0 0.0
2018-Feb-18 17:28N 51°54' E 004°28'0 0.0
2018-Feb-18 16:58N 51°54' E 004°28'0 0.0
2018-Feb-18 16:28N 51°54' E 004°28'0 0.0
2018-Feb-18 15:58N 51°54' E 004°28'0 0.0
2018-Feb-18 15:28N 51°54' E 004°28'0 0.0
2018-Feb-18 14:58N 51°54' E 004°28'0 0.0
2018-Feb-18 14:28N 51°54' E 004°28'0 0.0
2018-Feb-18 13:58N 51°54' E 004°28'0 0.0
2018-Feb-18 13:25N 51°54' E 004°28'0 0.0
2018-Feb-18 12:58N 51°54' E 004°28'0 0.0
2018-Feb-18 12:28N 51°54' E 004°28'0 0.0
2018-Feb-18 11:58N 51°54' E 004°28'0 0.0
2018-Feb-18 11:28N 51°54' E 004°28'0 0.0
2018-Feb-18 10:58N 51°54' E 004°28'0 0.0
2018-Feb-18 10:28N 51°54' E 004°28'0 0.0
2018-Feb-18 09:58N 51°54' E 004°28'0 0.0
2018-Feb-18 09:28N 51°54' E 004°28'0 0.0
2018-Feb-18 08:58N 51°54' E 004°28'0 0.0
2018-Feb-18 08:28N 51°54' E 004°28'0 0.0
2018-Feb-18 07:58N 51°54' E 004°28'0 0.0
2018-Feb-18 07:28N 51°54' E 004°28'0 0.0
2018-Feb-18 06:58N 51°54' E 004°28'0 0.0
2018-Feb-18 06:28N 51°54' E 004°28'0 0.0
2018-Feb-18 05:58N 51°54' E 004°28'0 0.0
2018-Feb-18 05:28N 51°54' E 004°28'0 0.0
2018-Feb-18 04:58N 51°54' E 004°28'0 0.0
2018-Feb-18 04:28N 51°54' E 004°28'0 0.0
2018-Feb-18 03:58N 51°54' E 004°28'0 0.0
2018-Feb-18 03:28N 51°54' E 004°28'0 0.0
2018-Feb-18 02:58N 51°54' E 004°28'0 0.0
2018-Feb-18 02:28N 51°54' E 004°28'0 0.0
2018-Feb-18 01:58N 51°54' E 004°28'0 0.0
2018-Feb-18 01:28N 51°54' E 004°28'0 0.0
2018-Feb-18 00:58N 51°54' E 004°28'0 0.0
2018-Feb-18 00:25N 51°54' E 004°28'0 0.0
2018-Feb-17 23:58N 51°54' E 004°28'0 0.0
2018-Feb-17 23:28N 51°54' E 004°28'0 0.0
2018-Feb-17 22:58N 51°54' E 004°28'0 0.0
2018-Feb-17 22:28N 51°54' E 004°28'0 0.0
2018-Feb-17 21:58N 51°54' E 004°28'0 0.0
2018-Feb-17 21:28N 51°54' E 004°28'0 0.0
2018-Feb-17 20:58N 51°54' E 004°28'0 0.0
2018-Feb-17 20:28N 51°54' E 004°28'0 0.0
2018-Feb-17 19:58N 51°54' E 004°28'0 0.0
2018-Feb-17 19:28N 51°54' E 004°28'0 0.0
2018-Feb-17 18:58N 51°54' E 004°28'0 0.0
2018-Feb-17 18:28N 51°54' E 004°28'0 0.0
2018-Feb-17 17:58N 51°54' E 004°28'0 0.0
2018-Feb-17 17:28N 51°54' E 004°28'0 0.0
2018-Feb-17 16:58N 51°54' E 004°28'0 0.0
2018-Feb-17 16:28N 51°54' E 004°28'0 0.0
2018-Feb-17 15:58N 51°54' E 004°28'0 0.0
2018-Feb-17 15:25N 51°54' E 004°28'0 0.0
2018-Feb-17 14:58N 51°54' E 004°28'0 0.0
2018-Feb-17 14:28N 51°54' E 004°28'0 0.0
2018-Feb-17 13:58N 51°54' E 004°28'0 0.0
2018-Feb-17 13:28N 51°54' E 004°28'0 0.0
2018-Feb-17 12:58N 51°54' E 004°28'0 0.0
2018-Feb-17 12:28N 51°54' E 004°28'0 0.0
2018-Feb-17 11:58N 51°54' E 004°28'0 0.0
2018-Feb-17 11:28N 51°54' E 004°28'0 0.0
2018-Feb-17 10:58N 51°54' E 004°28'0 0.0
2018-Feb-17 10:28N 51°54' E 004°28'0 0.0
2018-Feb-17 09:58N 51°54' E 004°28'0 0.0
2018-Feb-17 09:28N 51°54' E 004°28'0 0.0
2018-Feb-17 08:58N 51°54' E 004°28'0 0.0
2018-Feb-17 08:28N 51°54' E 004°28'0 0.0
2018-Feb-17 07:58N 51°54' E 004°28'0 0.0
2018-Feb-17 07:28N 51°54' E 004°28'0 0.0
2018-Feb-17 06:58N 51°54' E 004°28'0 0.0
2018-Feb-17 06:28N 51°54' E 004°28'0 0.0
2018-Feb-17 05:58N 51°54' E 004°28'0 0.0
2018-Feb-17 05:28N 51°54' E 004°28'0 0.0
2018-Feb-17 04:58N 51°54' E 004°28'0 0.0
2018-Feb-17 04:25N 51°54' E 004°28'0 0.0
2018-Feb-17 03:58N 51°54' E 004°28'0 0.0
2018-Feb-17 03:28N 51°54' E 004°28'0 0.0
2018-Feb-17 02:58N 51°54' E 004°28'0 0.0
2018-Feb-17 02:28N 51°54' E 004°28'0 0.0
2018-Feb-17 01:58N 51°54' E 004°28'0 0.0
2018-Feb-17 01:28N 51°54' E 004°28'0 0.0
2018-Feb-17 00:58N 51°54' E 004°28'0 0.0
2018-Feb-17 00:28N 51°54' E 004°28'0 0.0
2018-Feb-16 23:58N 51°54' E 004°28'0 0.0
2018-Feb-16 23:28N 51°54' E 004°28'0 0.0
2018-Feb-16 22:58N 51°54' E 004°28'0 0.0
2018-Feb-16 22:28N 51°54' E 004°28'0 0.0
2018-Feb-16 21:58N 51°54' E 004°28'0 0.0
2018-Feb-16 21:28N 51°54' E 004°28'0 0.0
2018-Feb-16 20:58N 51°54' E 004°28'0 0.0
2018-Feb-16 20:28N 51°54' E 004°28'0 0.0
2018-Feb-16 19:58N 51°54' E 004°28'0 0.0
2018-Feb-16 19:28N 51°54' E 004°28'0 0.0
2018-Feb-16 18:58N 51°54' E 004°28'0 0.0
2018-Feb-16 18:28N 51°54' E 004°28'0 0.0
2018-Feb-16 17:58N 51°54' E 004°28'0 0.0
2018-Feb-16 17:28N 51°54' E 004°28'0 0.0
2018-Feb-16 16:58N 51°54' E 004°28'0 0.0
2018-Feb-16 16:28N 51°54' E 004°28'0 0.0
2018-Feb-16 15:58N 51°54' E 004°28'0 0.0
2018-Feb-16 15:28N 51°54' E 004°28'0 0.0
2018-Feb-16 14:58N 51°54' E 004°28'0 0.0
2018-Feb-16 14:28N 51°54' E 004°28'0 0.0
2018-Feb-16 13:58N 51°54' E 004°28'0 0.0
2018-Feb-16 13:28N 51°54' E 004°28'0 0.0
2018-Feb-16 12:58N 51°54' E 004°28'0 0.0
2018-Feb-16 12:28N 51°54' E 004°28'0 0.0
2018-Feb-16 11:58N 51°54' E 004°28'0 0.0
2018-Feb-16 11:28N 51°54' E 004°28'0 0.0
2018-Feb-16 10:58N 51°54' E 004°28'0 0.0
2018-Feb-16 10:28N 51°54' E 004°28'0 0.0
2018-Feb-16 09:58N 51°54' E 004°28'0 0.0
2018-Feb-16 09:28N 51°54' E 004°28'0 0.0
2018-Feb-16 08:58N 51°54' E 004°28'0 0.0
2018-Feb-16 08:28N 51°54' E 004°28'0 0.0
2018-Feb-16 07:55N 51°54' E 004°28'0 0.0
2018-Feb-16 07:28N 51°54' E 004°28'0 0.0
2018-Feb-16 06:58N 51°54' E 004°28'0 0.0
2018-Feb-16 06:28N 51°54' E 004°28'0 0.0
2018-Feb-16 05:58N 51°54' E 004°28'0 0.0
2018-Feb-16 05:28N 51°54' E 004°28'0 0.0
2018-Feb-16 04:58N 51°54' E 004°28'0 0.0
2018-Feb-16 04:28N 51°54' E 004°28'0 0.0
2018-Feb-16 03:58N 51°54' E 004°28'0 0.0
2018-Feb-16 03:28N 51°54' E 004°28'0 0.0
2018-Feb-16 02:52N 51°54' E 004°28'0 0.0
2018-Feb-16 02:28N 51°54' E 004°28'0 0.0
2018-Feb-16 01:58N 51°54' E 004°28'0 0.0
2018-Feb-16 01:28N 51°54' E 004°28'0 0.0
2018-Feb-16 00:58N 51°54' E 004°28'0 0.0
2018-Feb-16 00:28N 51°54' E 004°28'0 0.0
2018-Feb-15 23:58N 51°54' E 004°28'0 0.0
2018-Feb-15 23:28N 51°54' E 004°28'0 0.0
2018-Feb-15 22:58N 51°54' E 004°28'0 0.0
2018-Feb-15 22:28N 51°54' E 004°28'0 0.0
2018-Feb-15 21:58N 51°54' E 004°28'0 0.0
2018-Feb-15 21:28N 51°54' E 004°28'0 0.0
2018-Feb-15 20:58N 51°54' E 004°28'0 0.0
2018-Feb-15 20:28N 51°54' E 004°28'0 0.0
2018-Feb-15 19:58N 51°54' E 004°28'0 0.0
2018-Feb-15 19:28N 51°54' E 004°28'0 0.0
2018-Feb-15 18:58N 51°54' E 004°28'0 0.0
2018-Feb-15 18:28N 51°54' E 004°28'0 0.0
2018-Feb-15 17:58N 51°54' E 004°28'0 0.0
2018-Feb-15 17:28N 51°54' E 004°28'0 0.0
2018-Feb-15 16:58N 51°54' E 004°28'0 0.0
2018-Feb-15 16:28N 51°54' E 004°28'0 0.0
2018-Feb-15 15:58N 51°54' E 004°28'0 0.0
2018-Feb-15 15:28N 51°54' E 004°28'0 0.0
2018-Feb-15 14:58N 51°54' E 004°28'0 0.0
2018-Feb-15 14:28N 51°54' E 004°28'0 0.0
2018-Feb-15 13:58N 51°54' E 004°28'0 0.0
2018-Feb-15 13:28N 51°54' E 004°28'0 0.0
2018-Feb-15 12:58N 51°54' E 004°28'0 0.0
2018-Feb-15 12:28N 51°54' E 004°28'0 0.0
2018-Feb-15 11:58N 51°54' E 004°28'0 0.0
2018-Feb-15 11:28N 51°54' E 004°28'0 0.0
2018-Feb-15 10:58N 51°54' E 004°28'0 0.0
2018-Feb-15 10:28N 51°54' E 004°28'0 0.0
2018-Feb-15 09:58N 51°54' E 004°28'0 0.0
2018-Feb-15 09:28N 51°54' E 004°28'0 0.0
2018-Feb-15 08:58N 51°54' E 004°28'0 0.0
2018-Feb-15 08:28N 51°54' E 004°28'0 0.0
2018-Feb-15 07:58N 51°54' E 004°28'0 0.0
2018-Feb-15 07:28N 51°54' E 004°28'0 0.0
2018-Feb-15 06:58N 51°54' E 004°28'0 0.0
2018-Feb-15 06:28N 51°54' E 004°28'0 0.0
2018-Feb-15 05:58N 51°54' E 004°28'0 0.0
2018-Feb-15 05:28N 51°54' E 004°28'0 0.0
2018-Feb-15 04:58N 51°54' E 004°28'0 0.0
2018-Feb-15 04:25N 51°54' E 004°28'0 0.0
2018-Feb-15 03:58N 51°54' E 004°28'0 0.0
2018-Feb-15 03:28N 51°54' E 004°28'0 0.0
2018-Feb-15 02:58N 51°54' E 004°28'0 0.0
2018-Feb-15 02:28N 51°54' E 004°28'0 0.0
2018-Feb-15 01:58N 51°54' E 004°28'0 0.0
2018-Feb-15 01:28N 51°54' E 004°28'0 0.0
2018-Feb-15 00:58N 51°54' E 004°28'0 0.0
2018-Feb-15 00:28N 51°54' E 004°28'0 0.0
2018-Feb-14 23:58N 51°54' E 004°28'0 0.0
2018-Feb-14 23:28N 51°54' E 004°28'0 0.0
2018-Feb-14 22:58N 51°54' E 004°28'0 0.0
2018-Feb-14 22:28N 51°54' E 004°28'0 0.0
2018-Feb-14 21:58N 51°54' E 004°28'0 0.0
2018-Feb-14 21:25N 51°54' E 004°28'0 0.0
2018-Feb-14 20:58N 51°54' E 004°28'0 0.0
2018-Feb-14 20:28N 51°54' E 004°28'0 0.0
2018-Feb-14 19:58N 51°54' E 004°28'0 0.0
2018-Feb-14 19:28N 51°54' E 004°28'0 0.0
2018-Feb-14 18:58N 51°54' E 004°28'0 0.0
2018-Feb-14 18:28N 51°54' E 004°28'0 0.0
2018-Feb-14 17:58N 51°54' E 004°28'0 0.0
2018-Feb-14 17:28N 51°54' E 004°28'0 0.0
2018-Feb-14 16:58N 51°54' E 004°28'0 0.0
2018-Feb-14 16:25N 51°54' E 004°28'0 0.0
2018-Feb-14 15:58N 51°54' E 004°28'0 0.0
2018-Feb-14 15:28N 51°54' E 004°28'0 0.0
2018-Feb-14 14:58N 51°54' E 004°28'0 0.0
2018-Feb-14 14:28N 51°54' E 004°28'0 0.0
2018-Feb-14 13:58N 51°54' E 004°28'0 0.0
2018-Feb-14 13:28N 51°54' E 004°28'0 0.0
2018-Feb-14 12:58N 51°54' E 004°28'0 0.0
2018-Feb-14 12:28N 51°54' E 004°28'0 0.0
2018-Feb-14 11:58N 51°54' E 004°28'0 0.0
2018-Feb-14 11:28N 51°54' E 004°28'0 0.0
2018-Feb-14 10:58N 51°54' E 004°28'0 0.0
2018-Feb-14 10:25N 51°54' E 004°28'0 0.0
2018-Feb-14 09:58N 51°54' E 004°28'0 0.0
2018-Feb-14 09:28N 51°54' E 004°28'0 0.0
2018-Feb-14 08:58N 51°54' E 004°28'0 0.0
2018-Feb-14 08:28N 51°54' E 004°28'0 0.0
2018-Feb-14 07:58N 51°54' E 004°28'0 0.0
2018-Feb-14 07:28N 51°54' E 004°28'0 0.0
2018-Feb-14 06:58N 51°54' E 004°28'0 0.0
2018-Feb-14 06:28N 51°54' E 004°28'0 0.0
2018-Feb-14 05:58N 51°54' E 004°28'0 0.0
2018-Feb-14 05:28N 51°54' E 004°28'0 0.0
2018-Feb-14 04:58N 51°54' E 004°28'0 0.0
2018-Feb-14 04:28N 51°54' E 004°28'0 0.0
2018-Feb-14 03:58N 51°54' E 004°28'0 0.0
2018-Feb-14 03:28N 51°54' E 004°28'0 0.0
2018-Feb-14 02:55N 51°54' E 004°28'0 0.0
2018-Feb-14 02:28N 51°54' E 004°28'0 0.0
2018-Feb-14 01:58N 51°54' E 004°28'0 0.0
2018-Feb-14 01:28N 51°54' E 004°28'0 0.0
2018-Feb-14 00:58N 51°54' E 004°28'0 0.0
2018-Feb-14 00:28N 51°54' E 004°28'0 0.0
2018-Feb-13 23:58N 51°54' E 004°28'0 0.0
2018-Feb-13 23:28N 51°54' E 004°28'0 0.0
2018-Feb-13 22:58N 51°54' E 004°28'0 0.0
2018-Feb-13 22:28N 51°54' E 004°28'0 0.0
2018-Feb-13 21:58N 51°54' E 004°28'0 0.0
2018-Feb-13 21:28N 51°54' E 004°28'0 0.0
2018-Feb-13 20:58N 51°54' E 004°28'0 0.0
2018-Feb-13 20:28N 51°54' E 004°28'0 0.0
2018-Feb-13 19:58N 51°54' E 004°28'0 0.0
2018-Feb-13 19:28N 51°54' E 004°28'0 0.0
2018-Feb-13 18:58N 51°54' E 004°28'0 0.0
2018-Feb-13 18:28N 51°54' E 004°28'0 0.0
2018-Feb-13 17:58N 51°54' E 004°28'0 0.0
2018-Feb-13 17:28N 51°54' E 004°28'0 0.0
2018-Feb-13 16:58N 51°54' E 004°28'0 0.0
2018-Feb-13 16:28N 51°54' E 004°28'0 0.0
2018-Feb-13 15:58N 51°54' E 004°28'0 0.0
2018-Feb-13 15:28N 51°54' E 004°28'0 0.0
2018-Feb-13 14:58N 51°54' E 004°28'0 0.0
2018-Feb-13 14:28N 51°54' E 004°28'0 0.0
2018-Feb-13 13:58N 51°54' E 004°28'0 0.0
2018-Feb-13 13:28N 51°54' E 004°28'0 0.0
2018-Feb-13 12:58N 51°54' E 004°28'0 0.0
2018-Feb-13 12:28N 51°54' E 004°28'0 0.0
2018-Feb-13 11:58N 51°54' E 004°28'0 0.0
2018-Feb-13 11:28N 51°54' E 004°28'0 0.0
2018-Feb-13 10:58N 51°54' E 004°28'0 0.0
2018-Feb-13 10:28N 51°54' E 004°28'0 0.0
2018-Feb-13 09:58N 51°54' E 004°28'0 0.0
2018-Feb-13 09:28N 51°54' E 004°28'0 0.0
2018-Feb-13 08:58N 51°54' E 004°28'0 0.0
2018-Feb-13 08:28N 51°54' E 004°28'0 0.0
2018-Feb-13 07:58N 51°54' E 004°28'0 0.0
2018-Feb-13 07:28N 51°54' E 004°28'0 0.0
2018-Feb-13 06:58N 51°54' E 004°28'0 0.0
2018-Feb-13 06:28N 51°54' E 004°28'0 0.0
2018-Feb-13 05:58N 51°54' E 004°28'0 0.0
2018-Feb-13 05:28N 51°54' E 004°28'0 0.0
2018-Feb-13 04:58N 51°54' E 004°28'0 0.0
2018-Feb-13 04:28N 51°54' E 004°28'0 0.0
2018-Feb-13 03:58N 51°54' E 004°28'0 0.0
2018-Feb-13 03:28N 51°54' E 004°28'0 0.0
2018-Feb-13 02:58N 51°54' E 004°28'0 0.0
2018-Feb-13 02:28N 51°54' E 004°28'0 0.0
2018-Feb-13 01:58N 51°54' E 004°28'0 0.0
2018-Feb-13 01:28N 51°54' E 004°28'0 0.0
2018-Feb-13 00:58N 51°54' E 004°28'0 0.0
2018-Feb-13 00:28N 51°54' E 004°28'0 0.0
2018-Feb-12 23:58N 51°54' E 004°28'0 0.0
2018-Feb-12 23:28N 51°54' E 004°28'0 0.0
2018-Feb-12 22:58N 51°54' E 004°28'0 0.0
2018-Feb-12 22:28N 51°54' E 004°28'0 0.0
2018-Feb-12 22:00N 51°54' E 004°28'0 0.0
2018-Feb-12 21:30N 51°54' E 004°28'0 0.0
2018-Feb-12 21:01N 51°54' E 004°28'0 0.0
2018-Feb-12 20:31N 51°54' E 004°28'0 0.0
2018-Feb-12 20:00N 51°54' E 004°28'0 0.0
2018-Feb-12 19:30N 51°54' E 004°28'0 0.0
2018-Feb-12 19:00N 51°54' E 004°28'0 0.0
2018-Feb-12 18:30N 51°54' E 004°28'0 0.1
2018-Feb-12 18:00N 51°54' E 004°28'1 1.9
2018-Feb-12 17:30N 51°54' E 004°27'0 0.7
2018-Feb-12 16:59N 51°54' E 004°27'0 0.0
2018-Feb-12 16:26N 51°54' E 004°27'0 0.0
2018-Feb-12 15:59N 51°54' E 004°27'0 0.0
2018-Feb-12 15:29N 51°54' E 004°27'0 0.0
2018-Feb-12 14:59N 51°54' E 004°27'0 0.0
2018-Feb-12 14:29N 51°54' E 004°27'0 0.0
2018-Feb-12 13:59N 51°54' E 004°27'  

Dump ship's entire track history